sensor_id;sensor_type;location;lat;lon;timestamp;temperature;humidity
61374;DHT22;47242;48.158;-1.586;2024-03-23T05:31:35;6.90;80.80
61374;DHT22;47242;48.158;-1.586;2024-03-23T05:34:00;6.90;81.00
61374;DHT22;47242;48.158;-1.586;2024-03-23T05:36:26;6.90;80.80
61374;DHT22;47242;48.158;-1.586;2024-03-23T05:38:52;6.80;80.80
61374;DHT22;47242;48.158;-1.586;2024-03-23T05:41:17;6.70;81.00
61374;DHT22;47242;48.158;-1.586;2024-03-23T05:43:43;6.70;81.20
61374;DHT22;47242;48.158;-1.586;2024-03-23T05:46:09;6.70;81.40
61374;DHT22;47242;48.158;-1.586;2024-03-23T05:48:35;6.70;81.40
61374;DHT22;47242;48.158;-1.586;2024-03-23T05:51:01;6.70;81.20
61374;DHT22;47242;48.158;-1.586;2024-03-23T05:53:27;6.70;81.10
61374;DHT22;47242;48.158;-1.586;2024-03-23T05:56:02;6.70;81.10
61374;DHT22;47242;48.158;-1.586;2024-03-23T05:58:32;6.70;81.00
61374;DHT22;47242;48.158;-1.586;2024-03-23T06:00:59;6.70;80.80
61374;DHT22;47242;48.158;-1.586;2024-03-23T06:03:29;6.70;80.80
61374;DHT22;47242;48.158;-1.586;2024-03-23T06:05:55;6.70;80.60
61374;DHT22;47242;48.158;-1.586;2024-03-23T06:08:21;6.70;80.40
61374;DHT22;47242;48.158;-1.586;2024-03-23T06:10:47;6.70;80.60
61374;DHT22;47242;48.158;-1.586;2024-03-23T06:13:13;6.70;80.60
61374;DHT22;47242;48.158;-1.586;2024-03-23T06:15:39;6.60;80.80
61374;DHT22;47242;48.158;-1.586;2024-03-23T06:18:04;6.70;80.70
61374;DHT22;47242;48.158;-1.586;2024-03-23T06:20:31;6.70;80.40
61374;DHT22;47242;48.158;-1.586;2024-03-23T06:22:57;6.80;80.30
61374;DHT22;47242;48.158;-1.586;2024-03-23T06:25:22;6.80;80.10
61374;DHT22;47242;48.158;-1.586;2024-03-23T06:27:48;6.80;80.10
61374;DHT22;47242;48.158;-1.586;2024-03-23T06:30:14;6.80;80.20
61374;DHT22;47242;48.158;-1.586;2024-03-23T06:32:39;6.80;79.70
61374;DHT22;47242;48.158;-1.586;2024-03-23T06:35:05;6.90;80.00
61374;DHT22;47242;48.158;-1.586;2024-03-23T06:37:34;6.90;79.90
61374;DHT22;47242;48.158;-1.586;2024-03-23T06:40:00;7.00;79.70
61374;DHT22;47242;48.158;-1.586;2024-03-23T06:42:25;7.00;79.70
61374;DHT22;47242;48.158;-1.586;2024-03-23T06:44:51;7.00;79.70
61374;DHT22;47242;48.158;-1.586;2024-03-23T06:47:16;7.00;79.60
61374;DHT22;47242;48.158;-1.586;2024-03-23T06:49:42;7.10;79.30
61374;DHT22;47242;48.158;-1.586;2024-03-23T06:52:08;7.20;79.30
61374;DHT22;47242;48.158;-1.586;2024-03-23T06:54:33;7.20;79.00
61374;DHT22;47242;48.158;-1.586;2024-03-23T06:56:59;7.20;78.90
61374;DHT22;47242;48.158;-1.586;2024-03-23T06:59:25;7.30;78.70
61374;DHT22;47242;48.158;-1.586;2024-03-23T07:01:50;7.30;78.50
61374;DHT22;47242;48.158;-1.586;2024-03-23T07:04:16;7.60;78.40
61374;DHT22;47242;48.158;-1.586;2024-03-23T07:06:45;8.50;76.70
61374;DHT22;47242;48.158;-1.586;2024-03-23T07:09:11;9.50;74.10
61374;DHT22;47242;48.158;-1.586;2024-03-23T07:11:37;10.30;71.40
61374;DHT22;47242;48.158;-1.586;2024-03-23T07:14:03;10.20;70.90
61374;DHT22;47242;48.158;-1.586;2024-03-23T07:16:29;10.30;70.30
61374;DHT22;47242;48.158;-1.586;2024-03-23T07:18:55;10.40;69.70
61374;DHT22;47242;48.158;-1.586;2024-03-23T07:21:21;10.90;68.60
61374;DHT22;47242;48.158;-1.586;2024-03-23T07:23:47;11.80;66.40
61374;DHT22;47242;48.158;-1.586;2024-03-23T07:26:13;12.70;64.60
61374;DHT22;47242;48.158;-1.586;2024-03-23T07:28:39;13.50;62.00
61374;DHT22;47242;48.158;-1.586;2024-03-23T07:31:13;14.30;59.70
61374;DHT22;47242;48.158;-1.586;2024-03-23T07:33:48;15.00;58.00
61374;DHT22;47242;48.158;-1.586;2024-03-23T07:36:13;16.00;55.20
61374;DHT22;47242;48.158;-1.586;2024-03-23T07:38:43;17.50;51.60
61374;DHT22;47242;48.158;-1.586;2024-03-23T07:41:15;18.80;48.00
61374;DHT22;47242;48.158;-1.586;2024-03-23T07:43:43;19.50;46.10
61374;DHT22;47242;48.158;-1.586;2024-03-23T07:46:09;19.80;45.80
61374;DHT22;47242;48.158;-1.586;2024-03-23T07:48:34;20.10;44.30
61374;DHT22;47242;48.158;-1.586;2024-03-23T07:51:05;20.20;43.70
61374;DHT22;47242;48.158;-1.586;2024-03-23T07:53:35;19.70;43.50
61374;DHT22;47242;48.158;-1.586;2024-03-23T07:56:06;19.50;44.70
61374;DHT22;47242;48.158;-1.586;2024-03-23T07:58:32;19.50;44.60
61374;DHT22;47242;48.158;-1.586;2024-03-23T08:01:09;18.80;44.90
61374;DHT22;47242;48.158;-1.586;2024-03-23T08:03:36;18.30;46.10
61374;DHT22;47242;48.158;-1.586;2024-03-23T08:06:08;18.30;46.60
61374;DHT22;47242;48.158;-1.586;2024-03-23T08:08:34;18.50;46.50
61374;DHT22;47242;48.158;-1.586;2024-03-23T08:11:00;17.90;47.10
61374;DHT22;47242;48.158;-1.586;2024-03-23T08:13:27;16.90;49.40
61374;DHT22;47242;48.158;-1.586;2024-03-23T08:15:56;16.30;50.90
61374;DHT22;47242;48.158;-1.586;2024-03-23T08:18:22;16.50;52.20
61374;DHT22;47242;48.158;-1.586;2024-03-23T08:21:01;16.40;51.90
61374;DHT22;47242;48.158;-1.586;2024-03-23T08:23:29;16.40;52.20
61374;DHT22;47242;48.158;-1.586;2024-03-23T08:25:58;16.30;52.30
61374;DHT22;47242;48.158;-1.586;2024-03-23T08:28:25;16.00;53.30
61374;DHT22;47242;48.158;-1.586;2024-03-23T08:30:52;15.50;53.90
61374;DHT22;47242;48.158;-1.586;2024-03-23T08:33:17;15.20;55.40
61374;DHT22;47242;48.158;-1.586;2024-03-23T08:35:43;15.10;54.90
61374;DHT22;47242;48.158;-1.586;2024-03-23T08:38:17;15.20;55.80
61374;DHT22;47242;48.158;-1.586;2024-03-23T08:40:43;15.10;55.40
61374;DHT22;47242;48.158;-1.586;2024-03-23T08:43:09;14.80;55.40
61374;DHT22;47242;48.158;-1.586;2024-03-23T08:45:34;14.90;55.90
61374;DHT22;47242;48.158;-1.586;2024-03-23T08:48:00;15.10;55.70
61374;DHT22;47242;48.158;-1.586;2024-03-23T08:50:25;15.20;56.40
61374;DHT22;47242;48.158;-1.586;2024-03-23T08:52:51;15.20;55.40
61374;DHT22;47242;48.158;-1.586;2024-03-23T08:55:17;15.60;55.30
61374;DHT22;47242;48.158;-1.586;2024-03-23T08:57:42;15.90;54.60
61374;DHT22;47242;48.158;-1.586;2024-03-23T09:00:08;16.20;52.90
61374;DHT22;47242;48.158;-1.586;2024-03-23T09:02:36;16.30;52.20
61374;DHT22;47242;48.158;-1.586;2024-03-23T09:05:02;16.10;53.50
61374;DHT22;47242;48.158;-1.586;2024-03-23T09:07:32;16.40;53.60
61374;DHT22;47242;48.158;-1.586;2024-03-23T09:09:58;17.10;50.80
61374;DHT22;47242;48.158;-1.586;2024-03-23T09:12:24;17.60;50.30
61374;DHT22;47242;48.158;-1.586;2024-03-23T09:14:50;17.30;49.90
61374;DHT22;47242;48.158;-1.586;2024-03-23T09:17:16;17.30;50.20
61374;DHT22;47242;48.158;-1.586;2024-03-23T09:19:41;17.30;50.40
61374;DHT22;47242;48.158;-1.586;2024-03-23T09:22:07;17.10;49.10
61374;DHT22;47242;48.158;-1.586;2024-03-23T09:24:32;16.90;50.90
61374;DHT22;47242;48.158;-1.586;2024-03-23T09:26:58;17.20;51.10
61374;DHT22;47242;48.158;-1.586;2024-03-23T09:29:24;17.80;49.10
61374;DHT22;47242;48.158;-1.586;2024-03-23T09:31:49;18.80;47.90
61374;DHT22;47242;48.158;-1.586;2024-03-23T09:34:15;19.40;47.10
61374;DHT22;47242;48.158;-1.586;2024-03-23T09:36:41;19.30;44.70
61374;DHT22;47242;48.158;-1.586;2024-03-23T09:39:07;19.90;44.30
61374;DHT22;47242;48.158;-1.586;2024-03-23T09:41:35;20.30;43.60
61374;DHT22;47242;48.158;-1.586;2024-03-23T09:44:01;20.20;43.70
61374;DHT22;47242;48.158;-1.586;2024-03-23T09:46:27;20.60;43.70
61374;DHT22;47242;48.158;-1.586;2024-03-23T09:48:55;21.00;41.80
61374;DHT22;47242;48.158;-1.586;2024-03-23T09:51:22;21.40;41.50
61374;DHT22;47242;48.158;-1.586;2024-03-23T09:53:50;21.50;41.10
61374;DHT22;47242;48.158;-1.586;2024-03-23T09:56:16;22.00;40.50
61374;DHT22;47242;48.158;-1.586;2024-03-23T09:58:42;21.80;39.60
61374;DHT22;47242;48.158;-1.586;2024-03-23T10:01:09;20.80;39.70
61374;DHT22;47242;48.158;-1.586;2024-03-23T10:03:44;20.40;40.30
61374;DHT22;47242;48.158;-1.586;2024-03-23T10:06:10;20.70;40.40
61374;DHT22;47242;48.158;-1.586;2024-03-23T10:08:36;20.40;41.00
61374;DHT22;47242;48.158;-1.586;2024-03-23T10:11:22;20.20;40.80
61374;DHT22;47242;48.158;-1.586;2024-03-23T10:13:50;20.10;42.20
61374;DHT22;47242;48.158;-1.586;2024-03-23T10:16:23;19.50;42.00
61374;DHT22;47242;48.158;-1.586;2024-03-23T10:18:49;19.30;42.60
61374;DHT22;47242;48.158;-1.586;2024-03-23T10:21:16;19.30;43.30
61374;DHT22;47242;48.158;-1.586;2024-03-23T10:23:42;18.70;43.90
61374;DHT22;47242;48.158;-1.586;2024-03-23T10:26:23;18.20;45.10
61374;DHT22;47242;48.158;-1.586;2024-03-23T10:28:57;17.90;45.80
61374;DHT22;47242;48.158;-1.586;2024-03-23T10:31:26;17.50;46.70
61374;DHT22;47242;48.158;-1.586;2024-03-23T10:33:52;16.80;46.80
61374;DHT22;47242;48.158;-1.586;2024-03-23T10:36:23;16.50;48.60
61374;DHT22;47242;48.158;-1.586;2024-03-23T10:38:53;16.20;48.90
61374;DHT22;47242;48.158;-1.586;2024-03-23T10:41:19;15.90;49.30
61374;DHT22;47242;48.158;-1.586;2024-03-23T10:43:47;15.80;49.70
61374;DHT22;47242;48.158;-1.586;2024-03-23T10:46:13;15.70;51.00
61374;DHT22;47242;48.158;-1.586;2024-03-23T10:48:39;15.70;50.40
61374;DHT22;47242;48.158;-1.586;2024-03-23T10:51:08;15.70;50.60
61374;DHT22;47242;48.158;-1.586;2024-03-23T10:53:35;16.00;51.50
61374;DHT22;47242;48.158;-1.586;2024-03-23T10:56:02;15.80;50.30
61374;DHT22;47242;48.158;-1.586;2024-03-23T10:58:42;15.80;50.30
61374;DHT22;47242;48.158;-1.586;2024-03-23T11:01:13;15.50;50.40
61374;DHT22;47242;48.158;-1.586;2024-03-23T11:03:41;15.10;50.40
61374;DHT22;47242;48.158;-1.586;2024-03-23T11:06:10;15.00;50.40
61374;DHT22;47242;48.158;-1.586;2024-03-23T11:08:40;14.90;51.00
61374;DHT22;47242;48.158;-1.586;2024-03-23T11:11:14;14.90;52.50
61374;DHT22;47242;48.158;-1.586;2024-03-23T11:13:39;15.00;51.00
61374;DHT22;47242;48.158;-1.586;2024-03-23T11:18:41;15.40;51.50
61374;DHT22;47242;48.158;-1.586;2024-03-23T11:21:07;15.50;50.50
61374;DHT22;47242;48.158;-1.586;2024-03-23T11:23:33;15.30;50.30
61374;DHT22;47242;48.158;-1.586;2024-03-23T11:25:59;15.20;50.40
61374;DHT22;47242;48.158;-1.586;2024-03-23T11:28:24;14.90;51.60
61374;DHT22;47242;48.158;-1.586;2024-03-23T11:30:50;14.80;52.50
61374;DHT22;47242;48.158;-1.586;2024-03-23T11:33:16;14.60;54.40
61374;DHT22;47242;48.158;-1.586;2024-03-23T11:35:42;14.50;53.30
61374;DHT22;47242;48.158;-1.586;2024-03-23T11:40:36;14.40;55.20
61374;DHT22;47242;48.158;-1.586;2024-03-23T11:43:07;14.20;56.70
61374;DHT22;47242;48.158;-1.586;2024-03-23T11:48:12;13.70;58.50
61374;DHT22;47242;48.158;-1.586;2024-03-23T11:50:41;13.70;60.40
61374;DHT22;47242;48.158;-1.586;2024-03-23T11:53:08;14.00;62.10
61374;DHT22;47242;48.158;-1.586;2024-03-23T11:58:13;14.80;61.30
61374;DHT22;47242;48.158;-1.586;2024-03-23T12:00:39;15.10;61.10
61374;DHT22;47242;48.158;-1.586;2024-03-23T12:03:05;15.20;59.40
61374;DHT22;47242;48.158;-1.586;2024-03-23T12:05:34;15.30;59.00
61374;DHT22;47242;48.158;-1.586;2024-03-23T12:10:48;15.20;59.20
61374;DHT22;47242;48.158;-1.586;2024-03-23T12:13:18;15.00;58.50
61374;DHT22;47242;48.158;-1.586;2024-03-23T12:15:45;14.90;58.60
61374;DHT22;47242;48.158;-1.586;2024-03-23T12:18:11;14.70;58.40
61374;DHT22;47242;48.158;-1.586;2024-03-23T12:20:38;14.40;59.60
61374;DHT22;47242;48.158;-1.586;2024-03-23T12:23:08;14.20;60.00
61374;DHT22;47242;48.158;-1.586;2024-03-23T12:25:35;14.00;59.90
61374;DHT22;47242;48.158;-1.586;2024-03-23T12:28:00;13.80;60.30
61374;DHT22;47242;48.158;-1.586;2024-03-23T12:30:26;13.80;61.80
61374;DHT22;47242;48.158;-1.586;2024-03-23T12:32:52;13.70;60.80
61374;DHT22;47242;48.158;-1.586;2024-03-23T12:35:17;13.70;60.70
61374;DHT22;47242;48.158;-1.586;2024-03-23T12:37:44;13.60;60.90
61374;DHT22;47242;48.158;-1.586;2024-03-23T12:40:09;13.40;61.90
61374;DHT22;47242;48.158;-1.586;2024-03-23T12:42:35;13.30;62.60
61374;DHT22;47242;48.158;-1.586;2024-03-23T12:45:01;13.30;64.10
61374;DHT22;47242;48.158;-1.586;2024-03-23T12:47:27;13.40;64.00
61374;DHT22;47242;48.158;-1.586;2024-03-23T12:49:53;13.70;63.20
61374;DHT22;47242;48.158;-1.586;2024-03-23T12:52:18;14.00;62.30
61374;DHT22;47242;48.158;-1.586;2024-03-23T12:54:47;14.30;62.00
61374;DHT22;47242;48.158;-1.586;2024-03-23T12:57:12;14.50;65.30
61374;DHT22;47242;48.158;-1.586;2024-03-23T12:59:38;14.60;64.30
61374;DHT22;47242;48.158;-1.586;2024-03-23T13:02:03;14.70;61.50
61374;DHT22;47242;48.158;-1.586;2024-03-23T13:04:29;15.00;63.20
61374;DHT22;47242;48.158;-1.586;2024-03-23T13:06:55;15.00;62.50
61374;DHT22;47242;48.158;-1.586;2024-03-23T13:09:20;15.10;60.50
61374;DHT22;47242;48.158;-1.586;2024-03-23T13:11:46;14.90;60.20
61374;DHT22;47242;48.158;-1.586;2024-03-23T13:14:12;15.00;59.50
61374;DHT22;47242;48.158;-1.586;2024-03-23T13:16:40;15.00;58.50
61374;DHT22;47242;48.158;-1.586;2024-03-23T13:19:05;15.00;59.20
61374;DHT22;47242;48.158;-1.586;2024-03-23T13:21:31;14.90;59.10
61374;DHT22;47242;48.158;-1.586;2024-03-23T13:23:57;14.80;58.60
61374;DHT22;47242;48.158;-1.586;2024-03-23T13:26:23;15.10;59.00
61374;DHT22;47242;48.158;-1.586;2024-03-23T13:28:48;15.20;58.40
61374;DHT22;47242;48.158;-1.586;2024-03-23T13:31:14;15.30;57.00
61374;DHT22;47242;48.158;-1.586;2024-03-23T13:33:39;15.10;56.10
61374;DHT22;47242;48.158;-1.586;2024-03-23T13:36:07;15.00;57.80
61374;DHT22;47242;48.158;-1.586;2024-03-23T13:38:33;14.70;58.20
61374;DHT22;47242;48.158;-1.586;2024-03-23T13:40:59;14.60;58.40
61374;DHT22;47242;48.158;-1.586;2024-03-23T13:43:26;14.40;57.00
61374;DHT22;47242;48.158;-1.586;2024-03-23T13:45:57;14.30;57.00
61374;DHT22;47242;48.158;-1.586;2024-03-23T13:48:24;14.20;56.70
61374;DHT22;47242;48.158;-1.586;2024-03-23T13:51:03;14.00;58.00
61374;DHT22;47242;48.158;-1.586;2024-03-23T13:53:30;14.00;59.70
61374;DHT22;47242;48.158;-1.586;2024-03-23T13:55:56;14.40;62.10
61374;DHT22;47242;48.158;-1.586;2024-03-23T13:58:22;14.80;61.50
61374;DHT22;47242;48.158;-1.586;2024-03-23T14:00:51;14.80;61.40
61374;DHT22;47242;48.158;-1.586;2024-03-23T14:03:16;14.80;61.40
61374;DHT22;47242;48.158;-1.586;2024-03-23T14:05:43;14.70;60.10
61374;DHT22;47242;48.158;-1.586;2024-03-23T14:08:10;14.50;60.10
61374;DHT22;47242;48.158;-1.586;2024-03-23T14:10:37;14.30;60.40
61374;DHT22;47242;48.158;-1.586;2024-03-23T14:13:05;14.20;59.50
61374;DHT22;47242;48.158;-1.586;2024-03-23T14:15:31;14.00;61.10
61374;DHT22;47242;48.158;-1.586;2024-03-23T14:17:57;14.10;60.70
61374;DHT22;47242;48.158;-1.586;2024-03-23T14:20:23;14.10;60.80
61374;DHT22;47242;48.158;-1.586;2024-03-23T14:22:49;14.10;60.10
61374;DHT22;47242;48.158;-1.586;2024-03-23T14:25:15;14.30;60.30
61374;DHT22;47242;48.158;-1.586;2024-03-23T14:27:43;14.40;59.00
61374;DHT22;47242;48.158;-1.586;2024-03-23T14:30:09;14.30;59.20
61374;DHT22;47242;48.158;-1.586;2024-03-23T14:32:35;14.20;60.30
61374;DHT22;47242;48.158;-1.586;2024-03-23T14:35:01;14.40;59.60
61374;DHT22;47242;48.158;-1.586;2024-03-23T14:37:27;14.50;60.40
61374;DHT22;47242;48.158;-1.586;2024-03-23T14:39:55;14.60;61.40
61374;DHT22;47242;48.158;-1.586;2024-03-23T14:42:21;14.30;59.80
61374;DHT22;47242;48.158;-1.586;2024-03-23T14:44:47;13.90;59.10
61374;DHT22;47242;48.158;-1.586;2024-03-23T14:47:13;13.80;62.10
61374;DHT22;47242;48.158;-1.586;2024-03-23T14:49:38;14.00;64.30
61374;DHT22;47242;48.158;-1.586;2024-03-23T14:52:04;14.30;65.10
61374;DHT22;47242;48.158;-1.586;2024-03-23T14:54:30;14.20;63.10
61374;DHT22;47242;48.158;-1.586;2024-03-23T14:56:56;14.00;63.70
61374;DHT22;47242;48.158;-1.586;2024-03-23T14:59:24;14.00;62.80
61374;DHT22;47242;48.158;-1.586;2024-03-23T15:01:50;14.00;61.40
61374;DHT22;47242;48.158;-1.586;2024-03-23T15:04:16;13.90;61.30
61374;DHT22;47242;48.158;-1.586;2024-03-23T15:06:42;13.90;61.40
61374;DHT22;47242;48.158;-1.586;2024-03-23T15:09:07;14.10;61.20
61374;DHT22;47242;48.158;-1.586;2024-03-23T15:11:37;13.90;60.70
61374;DHT22;47242;48.158;-1.586;2024-03-23T15:14:02;13.80;60.80
61374;DHT22;47242;48.158;-1.586;2024-03-23T15:16:28;13.80;61.00
61374;DHT22;47242;48.158;-1.586;2024-03-23T15:18:53;14.00;60.40
61374;DHT22;47242;48.158;-1.586;2024-03-23T15:21:19;14.00;60.70
61374;DHT22;47242;48.158;-1.586;2024-03-23T15:23:47;13.90;60.60
61374;DHT22;47242;48.158;-1.586;2024-03-23T15:26:13;13.70;60.70
61374;DHT22;47242;48.158;-1.586;2024-03-23T15:28:39;13.50;60.40
61374;DHT22;47242;48.158;-1.586;2024-03-23T15:31:20;13.50;60.40
61374;DHT22;47242;48.158;-1.586;2024-03-23T15:33:45;13.50;60.90
61374;DHT22;47242;48.158;-1.586;2024-03-23T15:36:11;13.40;61.70
61374;DHT22;47242;48.158;-1.586;2024-03-23T15:38:37;13.30;62.00
61374;DHT22;47242;48.158;-1.586;2024-03-23T15:41:04;13.30;63.20
61374;DHT22;47242;48.158;-1.586;2024-03-23T15:43:30;13.30;64.50
61374;DHT22;47242;48.158;-1.586;2024-03-23T15:46:01;13.10;64.60
61374;DHT22;47242;48.158;-1.586;2024-03-23T15:48:28;13.30;64.10
61374;DHT22;47242;48.158;-1.586;2024-03-23T15:50:56;13.30;64.80
61374;DHT22;47242;48.158;-1.586;2024-03-23T15:53:24;13.20;65.70
61374;DHT22;47242;48.158;-1.586;2024-03-23T15:56:02;13.30;66.30
61374;DHT22;47242;48.158;-1.586;2024-03-23T15:58:29;13.40;66.10
61374;DHT22;47242;48.158;-1.586;2024-03-23T16:00:56;13.20;66.50
61374;DHT22;47242;48.158;-1.586;2024-03-23T16:03:22;13.10;66.60
61374;DHT22;47242;48.158;-1.586;2024-03-23T16:05:58;13.00;67.30
61374;DHT22;47242;48.158;-1.586;2024-03-23T16:08:25;13.00;66.60
61374;DHT22;47242;48.158;-1.586;2024-03-23T16:10:51;13.10;66.30
61374;DHT22;47242;48.158;-1.586;2024-03-23T16:13:18;13.20;66.00
61374;DHT22;47242;48.158;-1.586;2024-03-23T16:15:44;13.20;65.30
61374;DHT22;47242;48.158;-1.586;2024-03-23T16:18:10;13.20;64.90
61374;DHT22;47242;48.158;-1.586;2024-03-23T16:20:36;13.30;64.00
61374;DHT22;47242;48.158;-1.586;2024-03-23T16:23:05;13.30;63.30
61374;DHT22;47242;48.158;-1.586;2024-03-23T16:25:30;13.20;63.40
61374;DHT22;47242;48.158;-1.586;2024-03-23T16:27:56;13.00;62.70
61374;DHT22;47242;48.158;-1.586;2024-03-23T16:30:22;12.90;63.30
61374;DHT22;47242;48.158;-1.586;2024-03-23T16:32:48;12.80;62.60
61374;DHT22;47242;48.158;-1.586;2024-03-23T16:35:17;12.80;61.90
61374;DHT22;47242;48.158;-1.586;2024-03-23T16:37:42;12.50;60.20
61374;DHT22;47242;48.158;-1.586;2024-03-23T16:40:08;12.40;61.10
61374;DHT22;47242;48.158;-1.586;2024-03-23T16:42:35;12.30;61.10
61374;DHT22;47242;48.158;-1.586;2024-03-23T16:45:02;12.30;61.60
61374;DHT22;47242;48.158;-1.586;2024-03-23T16:47:28;12.20;63.30
61374;DHT22;47242;48.158;-1.586;2024-03-23T16:49:59;12.20;64.00
61374;DHT22;47242;48.158;-1.586;2024-03-23T16:52:25;12.10;65.50
61374;DHT22;47242;48.158;-1.586;2024-03-23T16:54:51;11.90;68.50
61374;DHT22;47242;48.158;-1.586;2024-03-23T16:57:16;11.80;69.70
61374;DHT22;47242;48.158;-1.586;2024-03-23T16:59:42;11.60;70.90
61374;DHT22;47242;48.158;-1.586;2024-03-23T17:02:08;11.60;71.70
61374;DHT22;47242;48.158;-1.586;2024-03-23T17:04:34;11.60;71.50
61374;DHT22;47242;48.158;-1.586;2024-03-23T17:06:59;11.70;71.70
61374;DHT22;47242;48.158;-1.586;2024-03-23T17:09:25;11.80;71.10
61374;DHT22;47242;48.158;-1.586;2024-03-23T17:11:52;11.80;70.60
61374;DHT22;47242;48.158;-1.586;2024-03-23T17:14:17;11.80;70.90
61374;DHT22;47242;48.158;-1.586;2024-03-23T17:16:43;11.80;70.40
61374;DHT22;47242;48.158;-1.586;2024-03-23T17:19:10;11.90;70.50
61374;DHT22;47242;48.158;-1.586;2024-03-23T17:21:36;11.90;70.30
61374;DHT22;47242;48.158;-1.586;2024-03-23T17:24:06;12.10;70.10
61374;DHT22;47242;48.158;-1.586;2024-03-23T17:26:31;12.00;70.00
61374;DHT22;47242;48.158;-1.586;2024-03-23T17:28:58;12.00;69.60
61374;DHT22;47242;48.158;-1.586;2024-03-23T17:31:23;11.90;69.30
61374;DHT22;47242;48.158;-1.586;2024-03-23T17:33:49;11.80;69.80
61374;DHT22;47242;48.158;-1.586;2024-03-23T17:36:15;11.80;69.90
61374;DHT22;47242;48.158;-1.586;2024-03-23T17:38:41;11.70;69.90
61374;DHT22;47242;48.158;-1.586;2024-03-23T17:41:07;11.70;70.20
61374;DHT22;47242;48.158;-1.586;2024-03-23T17:43:37;11.70;69.70
61374;DHT22;47242;48.158;-1.586;2024-03-23T17:46:03;11.70;70.10
61374;DHT22;47242;48.158;-1.586;2024-03-23T17:48:30;11.60;70.40
61374;DHT22;47242;48.158;-1.586;2024-03-23T17:51:05;11.60;70.70
61374;DHT22;47242;48.158;-1.586;2024-03-23T17:53:37;11.70;70.80
61374;DHT22;47242;48.158;-1.586;2024-03-23T17:56:04;11.60;70.70
61374;DHT22;47242;48.158;-1.586;2024-03-23T17:58:30;11.50;70.30
61374;DHT22;47242;48.158;-1.586;2024-03-23T18:00:56;11.30;69.30
61374;DHT22;47242;48.158;-1.586;2024-03-23T18:03:22;11.20;70.20
61374;DHT22;47242;48.158;-1.586;2024-03-23T18:05:48;11.10;71.20
61374;DHT22;47242;48.158;-1.586;2024-03-23T18:08:13;11.00;72.70
61374;DHT22;47242;48.158;-1.586;2024-03-23T18:10:39;10.80;73.70
61374;DHT22;47242;48.158;-1.586;2024-03-23T18:13:05;10.80;74.00
61374;DHT22;47242;48.158;-1.586;2024-03-23T18:15:31;10.70;74.40
61374;DHT22;47242;48.158;-1.586;2024-03-23T18:17:57;10.70;74.50
61374;DHT22;47242;48.158;-1.586;2024-03-23T18:20:23;10.70;74.60
61374;DHT22;47242;48.158;-1.586;2024-03-23T18:22:49;10.70;74.20
61374;DHT22;47242;48.158;-1.586;2024-03-23T18:25:14;10.60;74.70
61374;DHT22;47242;48.158;-1.586;2024-03-23T18:27:40;10.60;75.10
61374;DHT22;47242;48.158;-1.586;2024-03-23T18:30:07;10.60;75.40
61374;DHT22;47242;48.158;-1.586;2024-03-23T18:32:33;10.60;75.60
61374;DHT22;47242;48.158;-1.586;2024-03-23T18:34:59;10.50;76.00
61374;DHT22;47242;48.158;-1.586;2024-03-23T18:37:24;10.50;76.20
61374;DHT22;47242;48.158;-1.586;2024-03-23T18:39:50;10.50;76.20
61374;DHT22;47242;48.158;-1.586;2024-03-23T18:42:15;10.50;76.10
61374;DHT22;47242;48.158;-1.586;2024-03-23T18:44:41;10.50;76.30
61374;DHT22;47242;48.158;-1.586;2024-03-23T18:47:07;10.50;76.00
61374;DHT22;47242;48.158;-1.586;2024-03-23T18:49:32;10.50;76.20
61374;DHT22;47242;48.158;-1.586;2024-03-23T18:51:58;10.10;76.70
61374;DHT22;47242;48.158;-1.586;2024-03-23T18:54:24;9.70;75.40
61374;DHT22;47242;48.158;-1.586;2024-03-23T18:56:50;9.70;76.10
61374;DHT22;47242;48.158;-1.586;2024-03-23T18:59:16;9.50;76.10
61374;DHT22;47242;48.158;-1.586;2024-03-23T19:01:42;9.40;74.60
61374;DHT22;47242;48.158;-1.586;2024-03-23T19:04:07;9.30;74.70
61374;DHT22;47242;48.158;-1.586;2024-03-23T19:06:33;9.30;75.10
61374;DHT22;47242;48.158;-1.586;2024-03-23T19:08:58;9.20;76.10
61374;DHT22;47242;48.158;-1.586;2024-03-23T19:11:24;9.30;76.70
61374;DHT22;47242;48.158;-1.586;2024-03-23T19:13:50;9.50;76.50
61374;DHT22;47242;48.158;-1.586;2024-03-23T19:16:16;9.50;76.90
61374;DHT22;47242;48.158;-1.586;2024-03-23T19:18:41;9.40;77.30
61374;DHT22;47242;48.158;-1.586;2024-03-23T19:21:07;9.50;77.30
61374;DHT22;47242;48.158;-1.586;2024-03-23T19:23:33;9.50;76.80
61374;DHT22;47242;48.158;-1.586;2024-03-23T19:26:02;9.40;76.90
61374;DHT22;47242;48.158;-1.586;2024-03-23T19:28:31;9.40;77.10
61374;DHT22;47242;48.158;-1.586;2024-03-23T19:30:58;9.40;76.80
61374;DHT22;47242;48.158;-1.586;2024-03-23T19:33:27;9.40;76.70
61374;DHT22;47242;48.158;-1.586;2024-03-23T19:35:56;9.30;77.10
61374;DHT22;47242;48.158;-1.586;2024-03-23T19:38:23;9.30;76.70
61374;DHT22;47242;48.158;-1.586;2024-03-23T19:40:57;9.30;76.10
61374;DHT22;47242;48.158;-1.586;2024-03-23T19:43:25;9.30;76.20
61374;DHT22;47242;48.158;-1.586;2024-03-23T19:45:51;9.40;75.90
61374;DHT22;47242;48.158;-1.586;2024-03-23T19:48:23;9.30;76.00
61374;DHT22;47242;48.158;-1.586;2024-03-23T19:50:59;9.40;76.10
61374;DHT22;47242;48.158;-1.586;2024-03-23T19:53:25;9.40;76.00
61374;DHT22;47242;48.158;-1.586;2024-03-23T19:56:06;9.40;76.10
61374;DHT22;47242;48.158;-1.586;2024-03-23T20:02:06;9.30;76.40
61374;DHT22;47242;48.158;-1.586;2024-03-23T20:04:38;9.40;76.50
61374;DHT22;47242;48.158;-1.586;2024-03-23T20:07:04;9.50;76.40
61374;DHT22;47242;48.158;-1.586;2024-03-23T20:09:29;9.50;76.10
61374;DHT22;47242;48.158;-1.586;2024-03-23T20:11:56;9.50;76.10
61374;DHT22;47242;48.158;-1.586;2024-03-23T20:14:24;9.50;76.00
61374;DHT22;47242;48.158;-1.586;2024-03-23T20:16:50;9.50;76.20
61374;DHT22;47242;48.158;-1.586;2024-03-23T20:19:24;9.40;76.60
61374;DHT22;47242;48.158;-1.586;2024-03-23T20:21:50;9.40;76.90
61374;DHT22;47242;48.158;-1.586;2024-03-23T20:24:24;9.40;76.90
61374;DHT22;47242;48.158;-1.586;2024-03-23T20:26:49;9.40;76.80
61374;DHT22;47242;48.158;-1.586;2024-03-23T20:29:15;9.30;76.70
61374;DHT22;47242;48.158;-1.586;2024-03-23T20:31:41;9.40;76.70
61374;DHT22;47242;48.158;-1.586;2024-03-23T20:34:07;9.30;76.90
61374;DHT22;47242;48.158;-1.586;2024-03-23T20:36:34;9.30;76.80
61374;DHT22;47242;48.158;-1.586;2024-03-23T20:39:03;9.30;76.60
61374;DHT22;47242;48.158;-1.586;2024-03-23T20:41:29;9.20;76.70
61374;DHT22;47242;48.158;-1.586;2024-03-23T20:43:55;9.20;76.60
61374;DHT22;47242;48.158;-1.586;2024-03-23T20:46:21;9.20;76.60
61374;DHT22;47242;48.158;-1.586;2024-03-23T20:48:47;9.20;76.70
61374;DHT22;47242;48.158;-1.586;2024-03-23T20:51:16;9.20;76.60
61374;DHT22;47242;48.158;-1.586;2024-03-23T20:53:42;9.10;76.60
61374;DHT22;47242;48.158;-1.586;2024-03-23T20:56:19;9.10;76.50
61374;DHT22;47242;48.158;-1.586;2024-03-23T20:58:52;9.00;76.80
61374;DHT22;47242;48.158;-1.586;2024-03-23T21:01:18;8.90;76.90
61374;DHT22;47242;48.158;-1.586;2024-03-23T21:03:44;9.00;77.00
61374;DHT22;47242;48.158;-1.586;2024-03-23T21:06:10;8.90;76.80